Time,TemperatureF,DewpointF,PressureIn,WindDirection,WindDirectionDegrees,WindSpeedMPH,WindSpeedGustMPH,Humidity,HourlyPrecipIn,Conditions,Clouds,dailyrainin,SoftwareType,DateUTC
2013-05-26 00:04:00,55.8,38.0,30.21,WNW,292,1.0,3.0,51,0.00,,,0.00,weatherlink.com 1.10,2013-05-26 04:04:00,
2013-05-26 00:19:00,55.8,37.0,30.21,NW,323,0.0,2.0,50,0.00,,,0.00,weatherlink.com 1.10,2013-05-26 04:19:00,
2013-05-26 00:34:00,55.9,38.0,30.22,NE,34,0.0,2.0,52,0.00,,,0.00,weatherlink.com 1.10,2013-05-26 04:34:00,
2013-05-26 00:49:00,55.6,38.0,30.22,NE,52,0.0,2.0,51,0.00,,,0.00,weatherlink.com 1.10,2013-05-26 04:49:00,
2013-05-26 01:04:00,55.3,39.0,30.22,NE,47,0.0,1.0,54,0.00,,,0.00,weatherlink.com 1.10,2013-05-26 05:04:00,
2013-05-26 01:19:00,55.1,38.0,30.22,NE,44,0.0,1.0,53,0.00,,,0.00,weatherlink.com 1.10,2013-05-26 05:19:00,
2013-05-26 01:34:00,55.0,38.0,30.21,NNW,347,0.0,1.0,53,0.00,,,0.00,weatherlink.com 1.10,2013-05-26 05:34:00,
2013-05-26 01:49:00,54.8,38.0,30.21,SSW,198,0.0,2.0,54,0.00,,,0.00,weatherlink.com 1.10,2013-05-26 05:49:00,
2013-05-26 02:04:00,54.0,39.0,30.22,WNW,286,0.0,1.0,57,0.00,,,0.00,weatherlink.com 1.10,2013-05-26 06:04:00,
2013-05-26 02:19:00,54.1,39.0,30.21,NW,312,0.0,1.0,58,0.00,,,0.00,weatherlink.com 1.10,2013-05-26 06:19:00,
2013-05-26 02:34:00,54.1,39.0,30.20,NW,315,0.0,1.0,56,0.00,,,0.00,weatherlink.com 1.10,2013-05-26 06:34:00,
2013-05-26 02:49:00,54.0,39.0,30.21,South,175,0.0,1.0,57,0.00,,,0.00,weatherlink.com 1.10,2013-05-26 06:49:00,
2013-05-26 03:04:00,53.3,39.0,30.21,South,175,0.0,0.0,58,0.00,,,0.00,weatherlink.com 1.10,2013-05-26 07:04:00,
2013-05-26 03:19:00,52.6,41.0,30.20,South,175,0.0,0.0,64,0.00,,,0.00,weatherlink.com 1.10,2013-05-26 07:19:00,
2013-05-26 03:34:00,52.3,39.0,30.20,South,175,0.0,0.0,62,0.00,,,0.00,weatherlink.com 1.10,2013-05-26 07:34:00,
2013-05-26 03:49:00,52.0,40.0,30.20,South,175,0.0,0.0,64,0.00,,,0.00,weatherlink.com 1.10,2013-05-26 07:49:00,
2013-05-26 04:04:00,51.9,40.0,30.20,South,175,0.0,0.0,63,0.00,,,0.00,weatherlink.com 1.10,2013-05-26 08:04:00,
2013-05-26 04:19:00,52.1,41.0,30.21,South,175,0.0,0.0,66,0.00,,,0.00,weatherlink.com 1.10,2013-05-26 08:19:00,
2013-05-26 04:34:00,51.9,40.0,30.21,South,175,0.0,0.0,65,0.00,,,0.00,weatherlink.com 1.10,2013-05-26 08:34:00,
2013-05-26 04:49:00,51.6,40.0,30.21,South,175,0.0,0.0,64,0.00,,,0.00,weatherlink.com 1.10,2013-05-26 08:49:00,
2013-05-26 05:04:00,51.6,41.0,30.21,SSW,195,0.0,0.0,67,0.00,,,0.00,weatherlink.com 1.10,2013-05-26 09:04:00,
2013-05-26 05:20:00,51.5,42.0,30.21,SSW,195,0.0,0.0,70,0.00,,,0.00,weatherlink.com 1.10,2013-05-26 09:20:00,
2013-05-26 05:35:00,51.4,42.0,30.21,SSW,195,0.0,0.0,71,0.00,,,0.00,weatherlink.com 1.10,2013-05-26 09:35:00,
2013-05-26 05:50:00,51.4,42.0,30.22,SSW,195,0.0,0.0,69,0.00,,,0.00,weatherlink.com 1.10,2013-05-26 09:50:00,
2013-05-26 06:05:00,51.4,41.0,30.23,SSW,195,0.0,0.0,68,0.00,,,0.00,weatherlink.com 1.10,2013-05-26 10:05:00,
2013-05-26 06:20:00,51.4,42.0,30.23,SSW,195,0.0,0.0,71,0.00,,,0.00,weatherlink.com 1.10,2013-05-26 10:20:00,
2013-05-26 06:35:00,51.1,42.0,30.24,SSW,195,0.0,0.0,71,0.00,,,0.00,weatherlink.com 1.10,2013-05-26 10:35:00,
2013-05-26 06:50:00,51.3,44.0,30.25,SSW,195,0.0,0.0,75,0.00,,,0.00,weatherlink.com 1.10,2013-05-26 10:50:00,
2013-05-26 07:05:00,51.5,43.0,30.25,SSW,195,0.0,0.0,72,0.00,,,0.00,weatherlink.com 1.10,2013-05-26 11:05:00,
2013-05-26 07:20:00,52.2,43.0,30.25,SSW,196,0.0,0.0,72,0.00,,,0.00,weatherlink.com 1.10,2013-05-26 11:20:00,
2013-05-26 07:35:00,53.6,45.0,30.24,SSW,200,0.0,0.0,73,0.00,,,0.00,weatherlink.com 1.10,2013-05-26 11:35:00,
2013-05-26 07:50:00,54.3,46.0,30.24,South,190,0.0,0.0,74,0.00,,,0.00,weatherlink.com 1.10,2013-05-26 11:50:00,
2013-05-26 08:05:00,54.7,47.0,30.25,SSW,192,0.0,0.0,75,0.00,,,0.00,weatherlink.com 1.10,2013-05-26 12:05:00,
2013-05-26 08:20:00,55.0,45.0,30.25,WSW,244,0.0,1.0,69,0.00,,,0.00,weatherlink.com 1.10,2013-05-26 12:20:00,
2013-05-26 08:35:00,55.3,45.0,30.25,SW,233,0.0,2.0,69,0.00,,,0.00,weatherlink.com 1.10,2013-05-26 12:35:00,
2013-05-26 08:50:00,55.5,45.0,30.26,SSW,194,0.0,1.0,69,0.00,,,0.00,weatherlink.com 1.10,2013-05-26 12:50:00,
2013-05-26 09:05:00,56.3,45.0,30.26,SW,221,0.0,1.0,67,0.00,,,0.00,weatherlink.com 1.10,2013-05-26 13:05:00,
2013-05-26 09:20:00,58.1,44.0,30.26,SW,221,2.0,7.0,60,0.00,,,0.00,weatherlink.com 1.10,2013-05-26 13:20:00,
2013-05-26 09:35:00,58.9,43.0,30.26,North,360,0.0,2.0,56,0.00,,,0.00,weatherlink.com 1.10,2013-05-26 13:35:00,
2013-05-26 09:50:00,60.3,41.0,30.26,NW,319,0.0,4.0,50,0.00,,,0.00,weatherlink.com 1.10,2013-05-26 13:50:00,
2013-05-26 10:05:00,61.1,41.0,30.26,East,80,0.0,5.0,48,0.00,,,0.00,weatherlink.com 1.10,2013-05-26 14:05:00,
2013-05-26 10:20:00,61.5,42.0,30.26,SW,223,2.0,3.0,49,0.00,,,0.00,weatherlink.com 1.10,2013-05-26 14:20:00,
2013-05-26 10:35:00,61.7,43.0,30.26,SSW,205,0.0,3.0,50,0.00,,,0.00,weatherlink.com 1.10,2013-05-26 14:35:00,
2013-05-26 10:50:00,62.1,43.0,30.25,SW,215,2.0,3.0,50,0.00,,,0.00,weatherlink.com 1.10,2013-05-26 14:50:00,
2013-05-26 11:05:00,62.3,45.0,30.25,SSW,213,1.0,4.0,53,0.00,,,0.00,weatherlink.com 1.10,2013-05-26 15:05:00,
2013-05-26 11:20:00,63.0,44.0,30.24,SW,236,2.0,4.0,50,0.00,,,0.00,weatherlink.com 1.10,2013-05-26 15:20:00,
2013-05-26 11:35:00,63.4,44.0,30.24,WSW,246,3.0,4.0,50,0.00,,,0.00,weatherlink.com 1.10,2013-05-26 15:35:00,
2013-05-26 11:50:00,64.5,44.0,30.24,WSW,248,0.0,3.0,48,0.00,,,0.00,weatherlink.com 1.10,2013-05-26 15:50:00,
2013-05-26 12:05:00,65.0,44.0,30.24,WSW,256,2.0,3.0,47,0.00,,,0.00,weatherlink.com 1.10,2013-05-26 16:05:00,
2013-05-26 12:20:00,66.0,43.0,30.23,NNE,24,0.0,4.0,43,0.00,,,0.00,weatherlink.com 1.10,2013-05-26 16:20:00,
2013-05-26 12:35:00,66.6,41.0,30.23,NW,321,0.0,2.0,40,0.00,,,0.00,weatherlink.com 1.10,2013-05-26 16:35:00,
2013-05-26 12:50:00,67.7,44.0,30.23,WNW,296,3.0,3.0,42,0.00,,,0.00,weatherlink.com 1.10,2013-05-26 16:50:00,
2013-05-26 13:06:00,67.8,42.0,30.22,SSE,154,0.0,4.0,39,0.00,,,0.00,weatherlink.com 1.10,2013-05-26 17:06:00,
2013-05-26 13:21:00,68.4,42.0,30.21,South,171,1.0,6.0,38,0.00,,,0.00,weatherlink.com 1.10,2013-05-26 17:21:00,
2013-05-26 13:36:00,69.2,42.0,30.19,WSW,250,4.0,5.0,38,0.00,,,0.00,weatherlink.com 1.10,2013-05-26 17:36:00,
2013-05-26 13:51:00,70.4,42.0,30.20,SW,236,0.0,3.0,36,0.00,,,0.00,weatherlink.com 1.10,2013-05-26 17:51:00,
2013-05-26 14:06:00,71.0,45.0,30.19,ENE,73,0.0,4.0,39,0.00,,,0.00,weatherlink.com 1.10,2013-05-26 18:06:00,
2013-05-26 14:21:00,72.2,42.0,30.19,NNE,19,2.0,3.0,34,0.00,,,0.00,weatherlink.com 1.10,2013-05-26 18:21:00,
2013-05-26 14:36:00,73.0,44.0,30.18,SW,230,3.0,4.0,35,0.00,,,0.00,weatherlink.com 1.10,2013-05-26 18:36:00,
2013-05-26 14:51:00,72.8,44.0,30.18,North,355,1.0,4.0,35,0.00,,,0.00,weatherlink.com 1.10,2013-05-26 18:51:00,
2013-05-26 15:06:00,73.7,43.0,30.18,SSW,213,4.0,6.0,33,0.00,,,0.00,weatherlink.com 1.10,2013-05-26 19:06:00,
2013-05-26 15:21:00,73.8,43.0,30.18,SW,219,3.0,3.0,33,0.00,,,0.00,weatherlink.com 1.10,2013-05-26 19:21:00,
2013-05-26 15:36:00,72.9,42.0,30.17,North,10,2.0,6.0,33,0.00,,,0.00,weatherlink.com 1.10,2013-05-26 19:36:00,
2013-05-26 15:51:00,72.7,42.0,30.16,West,261,2.0,4.0,33,0.00,,,0.00,weatherlink.com 1.10,2013-05-26 19:51:00,
2013-05-26 16:06:00,72.8,40.0,30.16,NW,309,0.0,4.0,31,0.00,,,0.00,weatherlink.com 1.10,2013-05-26 20:06:00,
2013-05-26 16:21:00,72.8,42.0,30.16,NNW,327,2.0,5.0,33,0.00,,,0.00,weatherlink.com 1.10,2013-05-26 20:21:00,
2013-05-26 16:36:00,72.8,44.0,30.16,NNW,344,1.0,5.0,35,0.00,,,0.00,weatherlink.com 1.10,2013-05-26 20:36:00,
2013-05-26 16:51:00,72.7,43.0,30.15,WNW,302,1.0,2.0,34,0.00,,,0.00,weatherlink.com 1.10,2013-05-26 20:51:00,
2013-05-26 17:06:00,72.8,42.0,30.15,North,355,1.0,2.0,33,0.00,,,0.00,weatherlink.com 1.10,2013-05-26 21:06:00,
2013-05-26 17:21:00,72.8,40.0,30.15,WNW,297,2.0,5.0,31,0.00,,,0.00,weatherlink.com 1.10,2013-05-26 21:21:00,
2013-05-26 17:36:00,72.6,43.0,30.15,North,11,0.0,4.0,34,0.00,,,0.00,weatherlink.com 1.10,2013-05-26 21:36:00,
2013-05-26 17:51:00,72.3,39.0,30.15,WNW,290,0.0,3.0,30,0.00,,,0.00,weatherlink.com 1.10,2013-05-26 21:51:00,
2013-05-26 18:06:00,72.4,40.0,30.15,SW,225,0.0,3.0,31,0.00,,,0.00,weatherlink.com 1.10,2013-05-26 22:06:00,
2013-05-26 18:21:00,72.0,40.0,30.15,ESE,109,0.0,2.0,32,0.00,,,0.00,weatherlink.com 1.10,2013-05-26 22:21:00,
2013-05-26 18:36:00,71.4,40.0,30.15,ESE,116,0.0,1.0,32,0.00,,,0.00,weatherlink.com 1.10,2013-05-26 22:36:00,
2013-05-26 18:51:00,71.0,42.0,30.15,SE,146,0.0,2.0,35,0.00,,,0.00,weatherlink.com 1.10,2013-05-26 22:51:00,
2013-05-26 19:06:00,70.9,40.0,30.15,SW,222,1.0,2.0,33,0.00,,,0.00,weatherlink.com 1.10,2013-05-26 23:06:00,
2013-05-26 19:21:00,70.6,41.0,30.16,WSW,244,2.0,4.0,34,0.00,,,0.00,weatherlink.com 1.10,2013-05-26 23:21:00,
2013-05-26 19:36:00,70.3,40.0,30.16,West,275,0.0,1.0,33,0.00,,,0.00,weatherlink.com 1.10,2013-05-26 23:36:00,
2013-05-26 19:51:00,69.5,41.0,30.16,South,188,0.0,1.0,35,0.00,,,0.00,weatherlink.com 1.10,2013-05-26 23:51:00,
2013-05-26 20:06:00,68.5,42.0,30.17,South,188,0.0,0.0,38,0.00,,,0.00,weatherlink.com 1.10,2013-05-27 00:06:00,
2013-05-26 20:21:00,67.4,41.0,30.17,South,188,0.0,0.0,39,0.00,,,0.00,weatherlink.com 1.10,2013-05-27 00:21:00,
2013-05-26 20:36:00,66.3,41.0,30.17,South,188,0.0,0.0,40,0.00,,,0.00,weatherlink.com 1.10,2013-05-27 00:36:00,
2013-05-26 20:51:00,65.2,42.0,30.17,South,188,0.0,0.0,43,0.00,,,0.00,weatherlink.com 1.10,2013-05-27 00:51:00,
2013-05-26 21:06:00,64.5,41.0,30.18,SW,223,0.0,0.0,43,0.00,,,0.00,weatherlink.com 1.10,2013-05-27 01:06:00,
2013-05-26 21:21:00,64.1,40.0,30.18,SW,223,0.0,0.0,42,0.00,,,0.00,weatherlink.com 1.10,2013-05-27 01:21:00,
2013-05-26 21:36:00,63.8,41.0,30.18,SW,223,0.0,0.0,43,0.00,,,0.00,weatherlink.com 1.10,2013-05-27 01:36:00,
2013-05-26 21:51:00,63.2,41.0,30.19,SW,223,0.0,0.0,45,0.00,,,0.00,weatherlink.com 1.10,2013-05-27 01:51:00,
2013-05-26 22:06:00,62.2,43.0,30.20,SW,223,0.0,0.0,49,0.00,,,0.00,weatherlink.com 1.10,2013-05-27 02:06:00,
2013-05-26 22:21:00,61.7,42.0,30.20,SW,223,0.0,0.0,48,0.00,,,0.00,weatherlink.com 1.10,2013-05-27 02:21:00,
2013-05-26 22:36:00,61.3,41.0,30.20,SW,223,0.0,0.0,48,0.00,,,0.00,weatherlink.com 1.10,2013-05-27 02:36:00,
2013-05-26 22:51:00,61.1,43.0,30.20,SW,223,0.0,0.0,51,0.00,,,0.00,weatherlink.com 1.10,2013-05-27 02:51:00,
2013-05-26 23:06:00,60.6,43.0,30.20,SW,223,0.0,0.0,53,0.00,,,0.00,weatherlink.com 1.10,2013-05-27 03:06:00,
2013-05-26 23:21:00,60.1,43.0,30.20,SW,223,0.0,0.0,54,0.00,,,0.00,weatherlink.com 1.10,2013-05-27 03:21:00,
2013-05-26 23:36:00,59.6,44.0,30.21,SW,223,0.0,0.0,57,0.00,,,0.00,weatherlink.com 1.10,2013-05-27 03:36:00,
2013-05-26 23:51:00,59.0,44.0,30.21,SW,223,0.0,0.0,59,0.00,,,0.00,weatherlink.com 1.10,2013-05-27 03:51:00,